sensor_id;sensor_type;location;lat;lon;timestamp;pressure;altitude;pressure_sealevel;temperature;humidity
80102;BME280;69407;44.966;19.622;2024-03-22T00:01:41;101180.34;;;13.36;63.49
80102;BME280;69407;44.966;19.622;2024-03-22T00:04:08;101191.00;;;13.54;66.59
80102;BME280;69407;44.966;19.622;2024-03-22T00:06:33;101190.00;;;13.56;66.76
80102;BME280;69407;44.966;19.622;2024-03-22T00:08:58;101187.88;;;13.45;67.20
80102;BME280;69407;44.966;19.622;2024-03-22T00:11:24;101185.78;;;13.14;65.79
80102;BME280;69407;44.966;19.622;2024-03-22T00:13:50;101187.13;;;13.61;64.17
80102;BME280;69407;44.966;19.622;2024-03-22T00:16:15;101187.03;;;13.45;64.10
80102;BME280;69407;44.966;19.622;2024-03-22T00:18:41;101182.41;;;13.48;68.95
80102;BME280;69407;44.966;19.622;2024-03-22T00:21:07;101185.31;;;13.25;69.70
80102;BME280;69407;44.966;19.622;2024-03-22T00:23:32;101183.56;;;13.43;64.60
80102;BME280;69407;44.966;19.622;2024-03-22T00:25:58;101185.81;;;13.33;64.33
80102;BME280;69407;44.966;19.622;2024-03-22T00:28:23;101179.25;;;13.40;64.44
80102;BME280;69407;44.966;19.622;2024-03-22T00:30:48;101184.22;;;13.10;67.09
80102;BME280;69407;44.966;19.622;2024-03-22T00:33:14;101180.69;;;12.91;66.65
80102;BME280;69407;44.966;19.622;2024-03-22T00:35:39;101181.78;;;12.87;65.92
80102;BME280;69407;44.966;19.622;2024-03-22T00:38:06;101178.84;;;12.93;70.67
80102;BME280;69407;44.966;19.622;2024-03-22T00:40:31;101183.88;;;12.99;66.27
80102;BME280;69407;44.966;19.622;2024-03-22T00:42:58;101182.69;;;12.48;70.00
80102;BME280;69407;44.966;19.622;2024-03-22T00:45:23;101179.97;;;13.06;66.89
80102;BME280;69407;44.966;19.622;2024-03-22T00:47:49;101178.84;;;12.93;67.57
80102;BME280;69407;44.966;19.622;2024-03-22T00:50:14;101177.72;;;12.99;68.84
80102;BME280;69407;44.966;19.622;2024-03-22T00:52:40;101179.88;;;12.70;66.33
80102;BME280;69407;44.966;19.622;2024-03-22T00:55:07;101184.00;;;11.97;72.72
80102;BME280;69407;44.966;19.622;2024-03-22T00:57:32;101178.81;;;12.55;68.23
80102;BME280;69407;44.966;19.622;2024-03-22T00:59:58;101176.97;;;12.95;64.40
80102;BME280;69407;44.966;19.622;2024-03-22T01:02:23;101184.22;;;12.73;70.28
80102;BME280;69407;44.966;19.622;2024-03-22T01:04:49;101182.28;;;12.95;65.56
80102;BME280;69407;44.966;19.622;2024-03-22T01:07:14;101188.16;;;12.83;65.70
80102;BME280;69407;44.966;19.622;2024-03-22T01:09:40;101186.78;;;12.15;68.48
80102;BME280;69407;44.966;19.622;2024-03-22T01:12:05;101175.34;;;12.74;64.49
80102;BME280;69407;44.966;19.622;2024-03-22T01:14:31;101171.81;;;12.73;65.81
80102;BME280;69407;44.966;19.622;2024-03-22T01:16:57;101172.09;;;13.05;63.16
80102;BME280;69407;44.966;19.622;2024-03-22T01:19:22;101179.13;;;13.06;64.18
80102;BME280;69407;44.966;19.622;2024-03-22T01:21:48;101169.94;;;12.94;65.14
80102;BME280;69407;44.966;19.622;2024-03-22T01:24:14;101180.75;;;12.11;65.10
80102;BME280;69407;44.966;19.622;2024-03-22T01:26:39;101180.75;;;11.91;68.77
80102;BME280;69407;44.966;19.622;2024-03-22T01:29:05;101179.63;;;11.74;68.23
80102;BME280;69407;44.966;19.622;2024-03-22T01:31:30;101174.50;;;12.53;65.47
80102;BME280;69407;44.966;19.622;2024-03-22T01:33:56;101178.59;;;11.79;69.37
80102;BME280;69407;44.966;19.622;2024-03-22T01:36:21;101181.22;;;12.21;67.32
80102;BME280;69407;44.966;19.622;2024-03-22T01:38:47;101174.41;;;12.15;68.22
80102;BME280;69407;44.966;19.622;2024-03-22T01:41:12;101175.84;;;12.22;67.10
80102;BME280;69407;44.966;19.622;2024-03-22T01:43:37;101172.63;;;12.55;65.06
80102;BME280;69407;44.966;19.622;2024-03-22T01:46:04;101178.91;;;12.13;66.05
80102;BME280;69407;44.966;19.622;2024-03-22T01:48:30;101179.25;;;12.26;66.63
80102;BME280;69407;44.966;19.622;2024-03-22T01:50:56;101174.72;;;12.08;67.36
80102;BME280;69407;44.966;19.622;2024-03-22T01:53:23;101176.19;;;11.72;65.11
80102;BME280;69407;44.966;19.622;2024-03-22T01:55:48;101174.88;;;11.19;68.04
80102;BME280;69407;44.966;19.622;2024-03-22T01:58:14;101175.47;;;11.25;69.22
80102;BME280;69407;44.966;19.622;2024-03-22T02:00:39;101172.44;;;11.12;69.78
80102;BME280;69407;44.966;19.622;2024-03-22T02:03:05;101179.84;;;11.48;68.21
80102;BME280;69407;44.966;19.622;2024-03-22T02:05:30;101178.72;;;12.18;67.12
80102;BME280;69407;44.966;19.622;2024-03-22T02:07:56;101172.81;;;12.11;64.59
80102;BME280;69407;44.966;19.622;2024-03-22T02:10:21;101175.69;;;12.46;66.76
80102;BME280;69407;44.966;19.622;2024-03-22T02:12:47;101173.09;;;12.83;62.91
80102;BME280;69407;44.966;19.622;2024-03-22T02:15:12;101163.19;;;12.49;63.51
80102;BME280;69407;44.966;19.622;2024-03-22T02:17:38;101163.38;;;12.45;63.41
80102;BME280;69407;44.966;19.622;2024-03-22T02:20:03;101172.84;;;12.50;62.90
80102;BME280;69407;44.966;19.622;2024-03-22T02:22:33;101178.78;;;12.37;63.32
80102;BME280;69407;44.966;19.622;2024-03-22T02:24:59;101170.97;;;12.13;65.52
80102;BME280;69407;44.966;19.622;2024-03-22T02:27:25;101172.31;;;12.42;66.83
80102;BME280;69407;44.966;19.622;2024-03-22T02:29:51;101167.94;;;12.61;62.33
80102;BME280;69407;44.966;19.622;2024-03-22T02:32:16;101166.06;;;12.64;60.04
80102;BME280;69407;44.966;19.622;2024-03-22T02:34:42;101164.91;;;12.50;62.42
80102;BME280;69407;44.966;19.622;2024-03-22T02:37:07;101175.91;;;12.41;64.02
80102;BME280;69407;44.966;19.622;2024-03-22T02:39:33;101176.72;;;12.23;65.26
80102;BME280;69407;44.966;19.622;2024-03-22T02:41:58;101174.97;;;11.59;67.90
80102;BME280;69407;44.966;19.622;2024-03-22T02:44:24;101176.13;;;11.74;69.46
80102;BME280;69407;44.966;19.622;2024-03-22T02:46:49;101183.28;;;11.72;69.23
80102;BME280;69407;44.966;19.622;2024-03-22T02:49:15;101174.38;;;11.53;67.48
80102;BME280;69407;44.966;19.622;2024-03-22T02:51:40;101181.06;;;11.83;68.25
80102;BME280;69407;44.966;19.622;2024-03-22T02:54:06;101176.59;;;12.06;70.01
80102;BME280;69407;44.966;19.622;2024-03-22T02:56:31;101169.28;;;12.51;65.00
80102;BME280;69407;44.966;19.622;2024-03-22T02:58:57;101170.03;;;12.74;60.48
80102;BME280;69407;44.966;19.622;2024-03-22T03:01:22;101173.84;;;12.87;59.16
80102;BME280;69407;44.966;19.622;2024-03-22T03:03:48;101174.72;;;12.28;60.03
80102;BME280;69407;44.966;19.622;2024-03-22T03:06:13;101172.91;;;12.88;58.67
80102;BME280;69407;44.966;19.622;2024-03-22T03:08:40;101174.25;;;12.78;59.42
80102;BME280;69407;44.966;19.622;2024-03-22T03:11:05;101172.88;;;13.07;59.88
80102;BME280;69407;44.966;19.622;2024-03-22T03:13:31;101184.00;;;12.38;64.18
80102;BME280;69407;44.966;19.622;2024-03-22T03:15:57;101189.00;;;12.25;71.31
80102;BME280;69407;44.966;19.622;2024-03-22T03:18:23;101179.31;;;12.64;69.23
80102;BME280;69407;44.966;19.622;2024-03-22T03:20:48;101189.88;;;12.45;67.06
80102;BME280;69407;44.966;19.622;2024-03-22T03:23:14;101185.97;;;12.53;67.80
80102;BME280;69407;44.966;19.622;2024-03-22T03:25:39;101184.97;;;12.56;67.22
80102;BME280;69407;44.966;19.622;2024-03-22T03:28:05;101190.75;;;12.45;68.08
80102;BME280;69407;44.966;19.622;2024-03-22T03:30:33;101182.13;;;12.60;66.93
80102;BME280;69407;44.966;19.622;2024-03-22T03:32:58;101190.38;;;12.14;69.87
80102;BME280;69407;44.966;19.622;2024-03-22T03:35:24;101199.47;;;11.86;70.70
80102;BME280;69407;44.966;19.622;2024-03-22T03:37:51;101197.50;;;11.91;71.09
80102;BME280;69407;44.966;19.622;2024-03-22T03:40:16;101193.47;;;12.03;70.28
80102;BME280;69407;44.966;19.622;2024-03-22T03:42:42;101194.47;;;12.21;72.79
80102;BME280;69407;44.966;19.622;2024-03-22T03:45:07;101206.53;;;12.48;69.42
80102;BME280;69407;44.966;19.622;2024-03-22T03:47:32;101201.81;;;12.35;67.40
80102;BME280;69407;44.966;19.622;2024-03-22T03:49:59;101200.53;;;12.64;65.81
80102;BME280;69407;44.966;19.622;2024-03-22T03:52:25;101209.53;;;12.59;67.00
80102;BME280;69407;44.966;19.622;2024-03-22T03:54:50;101205.00;;;12.02;67.11
80102;BME280;69407;44.966;19.622;2024-03-22T03:57:16;101201.63;;;11.33;73.69
80102;BME280;69407;44.966;19.622;2024-03-22T03:59:41;101205.22;;;12.18;71.53
80102;BME280;69407;44.966;19.622;2024-03-22T04:02:06;101201.88;;;12.33;69.21
80102;BME280;69407;44.966;19.622;2024-03-22T04:04:32;101207.97;;;12.35;67.66
80102;BME280;69407;44.966;19.622;2024-03-22T04:06:57;101203.97;;;12.26;67.87
80102;BME280;69407;44.966;19.622;2024-03-22T04:09:23;101209.44;;;12.22;66.94
80102;BME280;69407;44.966;19.622;2024-03-22T04:11:48;101209.03;;;12.11;65.32
80102;BME280;69407;44.966;19.622;2024-03-22T04:14:14;101221.50;;;12.09;67.13
80102;BME280;69407;44.966;19.622;2024-03-22T04:16:39;101217.31;;;12.03;66.98
80102;BME280;69407;44.966;19.622;2024-03-22T04:19:05;101216.16;;;11.66;69.81
80102;BME280;69407;44.966;19.622;2024-03-22T04:21:30;101221.22;;;11.94;68.27
80102;BME280;69407;44.966;19.622;2024-03-22T04:23:56;101219.53;;;11.70;70.02
80102;BME280;69407;44.966;19.622;2024-03-22T04:26:21;101219.22;;;11.34;70.71
80102;BME280;69407;44.966;19.622;2024-03-22T04:28:48;101223.78;;;11.30;70.65
80102;BME280;69407;44.966;19.622;2024-03-22T04:31:14;101223.63;;;10.40;71.71
80102;BME280;69407;44.966;19.622;2024-03-22T04:33:39;101228.47;;;11.00;71.98
80102;BME280;69407;44.966;19.622;2024-03-22T04:36:05;101232.00;;;11.68;66.62
80102;BME280;69407;44.966;19.622;2024-03-22T04:38:30;101230.25;;;10.51;72.22
80102;BME280;69407;44.966;19.622;2024-03-22T04:40:57;101239.38;;;9.63;83.82
80102;BME280;69407;44.966;19.622;2024-03-22T04:43:23;101244.50;;;9.69;91.49
80102;BME280;69407;44.966;19.622;2024-03-22T04:45:49;101240.84;;;10.51;89.32
80102;BME280;69407;44.966;19.622;2024-03-22T04:48:20;101242.25;;;10.37;88.88
80102;BME280;69407;44.966;19.622;2024-03-22T04:50:50;101232.38;;;10.90;87.77
80102;BME280;69407;44.966;19.622;2024-03-22T04:53:19;101236.63;;;11.18;83.68
80102;BME280;69407;44.966;19.622;2024-03-22T04:55:49;101235.50;;;11.68;80.81
80102;BME280;69407;44.966;19.622;2024-03-22T04:58:19;101242.53;;;11.24;83.71
80102;BME280;69407;44.966;19.622;2024-03-22T05:00:46;101245.63;;;11.35;84.50
80102;BME280;69407;44.966;19.622;2024-03-22T05:03:12;101249.31;;;11.31;85.40
80102;BME280;69407;44.966;19.622;2024-03-22T05:05:38;101240.81;;;11.23;84.89
80102;BME280;69407;44.966;19.622;2024-03-22T05:08:04;101244.41;;;11.44;82.36
80102;BME280;69407;44.966;19.622;2024-03-22T05:10:30;101245.78;;;11.54;82.02
80102;BME280;69407;44.966;19.622;2024-03-22T05:12:56;101251.25;;;11.50;83.60
80102;BME280;69407;44.966;19.622;2024-03-22T05:15:22;101242.31;;;11.74;81.54
80102;BME280;69407;44.966;19.622;2024-03-22T05:17:48;101243.19;;;11.74;79.82
80102;BME280;69407;44.966;19.622;2024-03-22T05:20:14;101252.81;;;11.77;77.29
80102;BME280;69407;44.966;19.622;2024-03-22T05:22:41;101253.44;;;11.84;76.53
80102;BME280;69407;44.966;19.622;2024-03-22T05:25:08;101253.63;;;11.79;77.21
80102;BME280;69407;44.966;19.622;2024-03-22T05:27:34;101257.56;;;12.11;75.28
80102;BME280;69407;44.966;19.622;2024-03-22T05:30:00;101265.16;;;12.20;74.14
80102;BME280;69407;44.966;19.622;2024-03-22T05:32:26;101266.19;;;12.38;72.61
80102;BME280;69407;44.966;19.622;2024-03-22T05:34:52;101277.47;;;12.21;72.54
80102;BME280;69407;44.966;19.622;2024-03-22T05:37:18;101271.94;;;12.48;71.74
80102;BME280;69407;44.966;19.622;2024-03-22T05:39:43;101285.25;;;11.37;75.67
80102;BME280;69407;44.966;19.622;2024-03-22T05:42:09;101275.53;;;11.14;76.90
80102;BME280;69407;44.966;19.622;2024-03-22T05:44:35;101272.66;;;11.89;74.30
80102;BME280;69407;44.966;19.622;2024-03-22T05:47:00;101268.25;;;12.10;71.19
80102;BME280;69407;44.966;19.622;2024-03-22T05:49:26;101272.41;;;12.37;68.74
80102;BME280;69407;44.966;19.622;2024-03-22T05:51:52;101274.38;;;11.90;70.03
80102;BME280;69407;44.966;19.622;2024-03-22T05:54:18;101274.88;;;11.99;71.22
80102;BME280;69407;44.966;19.622;2024-03-22T05:56:43;101282.66;;;12.45;67.39
80102;BME280;69407;44.966;19.622;2024-03-22T05:59:09;101280.19;;;12.81;65.03
80102;BME280;69407;44.966;19.622;2024-03-22T06:01:35;101284.66;;;12.60;64.19
80102;BME280;69407;44.966;19.622;2024-03-22T06:04:01;101285.25;;;12.46;68.91
80102;BME280;69407;44.966;19.622;2024-03-22T06:06:27;101293.25;;;12.45;63.70
80102;BME280;69407;44.966;19.622;2024-03-22T06:08:52;101292.50;;;12.21;64.68
80102;BME280;69407;44.966;19.622;2024-03-22T06:11:19;101285.91;;;12.72;64.81
80102;BME280;69407;44.966;19.622;2024-03-22T06:13:46;101287.13;;;12.22;68.82
80102;BME280;69407;44.966;19.622;2024-03-22T06:16:12;101291.81;;;11.50;73.43
80102;BME280;69407;44.966;19.622;2024-03-22T06:18:37;101291.31;;;11.40;74.82
80102;BME280;69407;44.966;19.622;2024-03-22T06:21:03;101292.19;;;11.63;75.98
80102;BME280;69407;44.966;19.622;2024-03-22T06:23:28;101288.00;;;12.02;74.02
80102;BME280;69407;44.966;19.622;2024-03-22T06:25:55;101288.13;;;12.20;72.51
80102;BME280;69407;44.966;19.622;2024-03-22T06:28:21;101292.69;;;12.38;72.08
80102;BME280;69407;44.966;19.622;2024-03-22T06:30:47;101300.63;;;12.38;70.07
80102;BME280;69407;44.966;19.622;2024-03-22T06:33:12;101296.66;;;12.69;69.80
80102;BME280;69407;44.966;19.622;2024-03-22T06:35:38;101298.25;;;12.52;68.27
80102;BME280;69407;44.966;19.622;2024-03-22T06:38:04;101289.78;;;12.02;71.67
80102;BME280;69407;44.966;19.622;2024-03-22T06:40:30;101291.69;;;12.61;69.23
80102;BME280;69407;44.966;19.622;2024-03-22T06:42:56;101288.44;;;13.14;66.71
80102;BME280;69407;44.966;19.622;2024-03-22T06:45:22;101287.09;;;13.43;66.91
80102;BME280;69407;44.966;19.622;2024-03-22T06:47:47;101290.00;;;14.47;60.58
80102;BME280;69407;44.966;19.622;2024-03-22T06:50:13;101293.75;;;13.89;60.03
80102;BME280;69407;44.966;19.622;2024-03-22T06:52:38;101287.28;;;14.29;59.42
80102;BME280;69407;44.966;19.622;2024-03-22T06:55:04;101288.03;;;14.68;56.87
80102;BME280;69407;44.966;19.622;2024-03-22T06:57:30;101289.16;;;14.10;59.62
80102;BME280;69407;44.966;19.622;2024-03-22T06:59:55;101287.06;;;15.50;55.79
80102;BME280;69407;44.966;19.622;2024-03-22T07:02:21;101292.03;;;15.90;51.55
80102;BME280;69407;44.966;19.622;2024-03-22T07:04:46;101289.28;;;17.38;46.59
80102;BME280;69407;44.966;19.622;2024-03-22T07:07:12;101285.69;;;17.66;45.61
80102;BME280;69407;44.966;19.622;2024-03-22T07:09:37;101277.88;;;18.57;41.26
80102;BME280;69407;44.966;19.622;2024-03-22T07:12:03;101282.53;;;21.08;36.76
80102;BME280;69407;44.966;19.622;2024-03-22T07:14:29;101270.09;;;24.96;30.30
80102;BME280;69407;44.966;19.622;2024-03-22T07:16:54;101274.72;;;23.98;29.05
80102;BME280;69407;44.966;19.622;2024-03-22T07:19:20;101281.53;;;23.03;31.17
80102;BME280;69407;44.966;19.622;2024-03-22T07:21:47;101277.56;;;23.47;29.46
80102;BME280;69407;44.966;19.622;2024-03-22T07:24:12;101279.63;;;21.45;31.95
80102;BME280;69407;44.966;19.622;2024-03-22T07:26:38;101274.25;;;22.52;32.27
80102;BME280;69407;44.966;19.622;2024-03-22T07:29:03;101273.63;;;23.11;31.10
80102;BME280;69407;44.966;19.622;2024-03-22T07:31:29;101268.03;;;25.17;27.20
80102;BME280;69407;44.966;19.622;2024-03-22T07:33:54;101265.75;;;25.50;26.73
80102;BME280;69407;44.966;19.622;2024-03-22T07:36:21;101259.97;;;25.62;25.89
80102;BME280;69407;44.966;19.622;2024-03-22T07:38:47;101266.38;;;28.29;23.37
80102;BME280;69407;44.966;19.622;2024-03-22T07:41:14;101262.06;;;28.92;23.89
80102;BME280;69407;44.966;19.622;2024-03-22T07:43:39;101254.06;;;29.76;22.11
80102;BME280;69407;44.966;19.622;2024-03-22T07:46:05;101261.09;;;28.60;23.17
80102;BME280;69407;44.966;19.622;2024-03-22T07:48:30;101265.44;;;29.02;22.49
80102;BME280;69407;44.966;19.622;2024-03-22T07:51:00;101260.69;;;27.98;21.38
80102;BME280;69407;44.966;19.622;2024-03-22T07:53:26;101259.38;;;28.59;21.00
80102;BME280;69407;44.966;19.622;2024-03-22T07:55:52;101258.84;;;28.07;22.18
80102;BME280;69407;44.966;19.622;2024-03-22T07:58:17;101250.94;;;30.71;21.46
80102;BME280;69407;44.966;19.622;2024-03-22T08:00:43;101250.66;;;31.55;19.35
80102;BME280;69407;44.966;19.622;2024-03-22T08:03:14;101266.41;;;26.68;23.28
80102;BME280;69407;44.966;19.622;2024-03-22T08:05:40;101260.47;;;29.13;22.25
80102;BME280;69407;44.966;19.622;2024-03-22T08:08:06;101255.94;;;29.45;21.26
80102;BME280;69407;44.966;19.622;2024-03-22T08:10:31;101253.75;;;34.56;18.02
80102;BME280;69407;44.966;19.622;2024-03-22T08:12:57;101241.59;;;35.68;16.61
80102;BME280;69407;44.966;19.622;2024-03-22T08:15:22;101246.63;;;37.58;15.67
80102;BME280;69407;44.966;19.622;2024-03-22T08:17:48;101248.25;;;34.70;17.23
80102;BME280;69407;44.966;19.622;2024-03-22T08:20:13;101258.00;;;37.31;14.59
80102;BME280;69407;44.966;19.622;2024-03-22T08:22:39;101259.75;;;37.74;14.23
80102;BME280;69407;44.966;19.622;2024-03-22T08:25:05;101254.81;;;38.59;13.14
80102;BME280;69407;44.966;19.622;2024-03-22T08:27:33;101250.53;;;35.57;15.38
80102;BME280;69407;44.966;19.622;2024-03-22T08:29:58;101254.50;;;36.06;15.53
80102;BME280;69407;44.966;19.622;2024-03-22T08:32:24;101250.97;;;38.60;13.93
80102;BME280;69407;44.966;19.622;2024-03-22T08:34:49;101244.50;;;38.43;14.04
80102;BME280;69407;44.966;19.622;2024-03-22T08:37:15;101254.72;;;35.66;15.29
80102;BME280;69407;44.966;19.622;2024-03-22T08:42:13;101254.66;;;36.43;16.05
80102;BME280;69407;44.966;19.622;2024-03-22T08:44:39;101243.44;;;38.79;12.92
80102;BME280;69407;44.966;19.622;2024-03-22T08:47:04;101242.88;;;40.65;12.19
80102;BME280;69407;44.966;19.622;2024-03-22T08:49:30;101236.78;;;41.72;11.04
80102;BME280;69407;44.966;19.622;2024-03-22T08:51:55;101247.91;;;37.55;13.64
80102;BME280;69407;44.966;19.622;2024-03-22T08:54:21;101242.19;;;35.39;13.81
80102;BME280;69407;44.966;19.622;2024-03-22T08:56:46;101249.63;;;36.83;14.16
80102;BME280;69407;44.966;19.622;2024-03-22T08:59:11;101244.81;;;41.69;11.77
80102;BME280;69407;44.966;19.622;2024-03-22T09:01:37;101242.13;;;36.47;13.75
80102;BME280;69407;44.966;19.622;2024-03-22T09:04:03;101252.88;;;38.36;12.58
80102;BME280;69407;44.966;19.622;2024-03-22T09:06:29;101239.59;;;39.72;12.78
80102;BME280;69407;44.966;19.622;2024-03-22T09:08:55;101241.44;;;37.49;13.31
80102;BME280;69407;44.966;19.622;2024-03-22T09:11:23;101238.34;;;36.66;13.78
80102;BME280;69407;44.966;19.622;2024-03-22T09:13:51;101242.53;;;34.12;16.22
80102;BME280;69407;44.966;19.622;2024-03-22T09:16:17;101240.22;;;30.32;17.94
80102;BME280;69407;44.966;19.622;2024-03-22T09:18:43;101246.94;;;27.75;20.37
80102;BME280;69407;44.966;19.622;2024-03-22T09:21:08;101245.22;;;26.46;21.50
80102;BME280;69407;44.966;19.622;2024-03-22T09:26:11;101247.59;;;24.48;24.75
80102;BME280;69407;44.966;19.622;2024-03-22T09:28:36;101247.91;;;24.82;23.13
80102;BME280;69407;44.966;19.622;2024-03-22T09:33:37;101241.03;;;23.64;23.30
80102;BME280;69407;44.966;19.622;2024-03-22T09:36:02;101239.13;;;21.57;25.84
80102;BME280;69407;44.966;19.622;2024-03-22T09:38:28;101231.25;;;22.71;24.99
80102;BME280;69407;44.966;19.622;2024-03-22T09:40:56;101240.72;;;21.60;26.29
80102;BME280;69407;44.966;19.622;2024-03-22T09:43:21;101237.75;;;23.20;24.51
80102;BME280;69407;44.966;19.622;2024-03-22T09:45:50;101238.13;;;21.70;28.64
80102;BME280;69407;44.966;19.622;2024-03-22T09:48:19;101240.03;;;21.79;27.05
80102;BME280;69407;44.966;19.622;2024-03-22T09:50:48;101240.75;;;21.15;26.60
80102;BME280;69407;44.966;19.622;2024-03-22T09:53:21;101233.09;;;22.71;25.17
80102;BME280;69407;44.966;19.622;2024-03-22T09:55:48;101243.19;;;21.41;26.43
80102;BME280;69407;44.966;19.622;2024-03-22T09:58:14;101245.94;;;20.50;27.68
80102;BME280;69407;44.966;19.622;2024-03-22T10:00:40;101241.19;;;21.54;28.69
80102;BME280;69407;44.966;19.622;2024-03-22T10:03:06;101233.03;;;21.87;27.18
80102;BME280;69407;44.966;19.622;2024-03-22T10:05:33;101237.94;;;21.93;28.70
80102;BME280;69407;44.966;19.622;2024-03-22T10:07:58;101237.34;;;21.79;28.00
80102;BME280;69407;44.966;19.622;2024-03-22T10:10:24;101235.00;;;19.94;28.08
80102;BME280;69407;44.966;19.622;2024-03-22T10:12:49;101235.25;;;20.26;28.51
80102;BME280;69407;44.966;19.622;2024-03-22T10:15:15;101227.16;;;20.14;29.34
80102;BME280;69407;44.966;19.622;2024-03-22T10:17:41;101228.53;;;20.77;28.80
80102;BME280;69407;44.966;19.622;2024-03-22T10:20:06;101221.53;;;21.20;29.59
80102;BME280;69407;44.966;19.622;2024-03-22T10:22:57;101220.22;;;21.03;29.17
80102;BME280;69407;44.966;19.622;2024-03-22T10:25:27;101230.25;;;20.90;30.66
80102;BME280;69407;44.966;19.622;2024-03-22T10:27:56;101218.78;;;20.99;29.61
80102;BME280;69407;44.966;19.622;2024-03-22T10:32:57;101222.25;;;19.60;30.71
80102;BME280;69407;44.966;19.622;2024-03-22T10:35:24;101220.63;;;19.71;31.69
80102;BME280;69407;44.966;19.622;2024-03-22T10:37:51;101223.16;;;20.77;31.02
80102;BME280;69407;44.966;19.622;2024-03-22T10:40:16;101214.63;;;20.84;30.60
80102;BME280;69407;44.966;19.622;2024-03-22T10:42:42;101221.16;;;20.57;30.74
80102;BME280;69407;44.966;19.622;2024-03-22T10:45:10;101223.25;;;20.18;31.50
80102;BME280;69407;44.966;19.622;2024-03-22T10:47:36;101212.53;;;20.30;32.70
80102;BME280;69407;44.966;19.622;2024-03-22T10:52:36;101207.50;;;20.49;32.74
80102;BME280;69407;44.966;19.622;2024-03-22T10:55:05;101194.38;;;20.33;32.02
80102;BME280;69407;44.966;19.622;2024-03-22T10:57:32;101197.06;;;19.87;33.11
80102;BME280;69407;44.966;19.622;2024-03-22T11:00:04;101194.22;;;20.47;32.03
80102;BME280;69407;44.966;19.622;2024-03-22T11:02:37;101191.78;;;19.61;33.51
80102;BME280;69407;44.966;19.622;2024-03-22T11:05:05;101177.59;;;20.65;33.24
80102;BME280;69407;44.966;19.622;2024-03-22T11:07:32;101174.06;;;20.75;33.04
80102;BME280;69407;44.966;19.622;2024-03-22T11:10:00;101174.66;;;20.57;33.51
80102;BME280;69407;44.966;19.622;2024-03-22T11:12:28;101174.84;;;19.85;34.33
80102;BME280;69407;44.966;19.622;2024-03-22T11:14:58;101173.09;;;20.08;35.79
80102;BME280;69407;44.966;19.622;2024-03-22T11:17:23;101162.97;;;20.00;34.80
80102;BME280;69407;44.966;19.622;2024-03-22T11:19:51;101153.31;;;20.66;34.91
80102;BME280;69407;44.966;19.622;2024-03-22T11:22:17;101155.00;;;20.56;34.59
80102;BME280;69407;44.966;19.622;2024-03-22T11:24:43;101154.91;;;19.65;35.51
80102;BME280;69407;44.966;19.622;2024-03-22T11:27:09;101150.03;;;19.46;36.28
80102;BME280;69407;44.966;19.622;2024-03-22T11:29:39;101145.66;;;20.15;36.26
80102;BME280;69407;44.966;19.622;2024-03-22T11:32:06;101140.75;;;19.50;35.79
80102;BME280;69407;44.966;19.622;2024-03-22T11:34:34;101137.41;;;19.83;36.24
80102;BME280;69407;44.966;19.622;2024-03-22T11:37:00;101132.34;;;20.49;35.55
80102;BME280;69407;44.966;19.622;2024-03-22T11:39:25;101136.75;;;19.69;37.08
80102;BME280;69407;44.966;19.622;2024-03-22T11:41:51;101131.25;;;19.46;36.61
80102;BME280;69407;44.966;19.622;2024-03-22T11:44:17;101127.97;;;19.67;36.40
80102;BME280;69407;44.966;19.622;2024-03-22T11:46:44;101129.38;;;19.36;36.29
80102;BME280;69407;44.966;19.622;2024-03-22T11:49:11;101124.97;;;19.35;37.49
80102;BME280;69407;44.966;19.622;2024-03-22T11:51:38;101119.97;;;19.78;36.78
80102;BME280;69407;44.966;19.622;2024-03-22T11:54:05;101121.97;;;19.15;36.82
80102;BME280;69407;44.966;19.622;2024-03-22T11:56:34;101113.22;;;19.48;37.22
80102;BME280;69407;44.966;19.622;2024-03-22T11:59:00;101104.47;;;19.22;37.04
80102;BME280;69407;44.966;19.622;2024-03-22T12:01:26;101104.88;;;19.05;37.47
80102;BME280;69407;44.966;19.622;2024-03-22T12:03:53;101103.78;;;19.31;37.03
80102;BME280;69407;44.966;19.622;2024-03-22T12:06:20;101098.75;;;19.03;37.68
80102;BME280;69407;44.966;19.622;2024-03-22T12:08:46;101101.47;;;19.38;36.96
80102;BME280;69407;44.966;19.622;2024-03-22T12:11:11;101094.31;;;19.39;37.63
80102;BME280;69407;44.966;19.622;2024-03-22T12:13:40;101095.00;;;19.53;37.05
80102;BME280;69407;44.966;19.622;2024-03-22T12:16:06;101094.41;;;19.61;37.16
80102;BME280;69407;44.966;19.622;2024-03-22T12:18:33;101087.72;;;19.55;38.28
80102;BME280;69407;44.966;19.622;2024-03-22T12:20:59;101087.03;;;19.17;37.91
80102;BME280;69407;44.966;19.622;2024-03-22T12:23:25;101084.56;;;19.14;38.60
80102;BME280;69407;44.966;19.622;2024-03-22T12:25:51;101081.91;;;19.49;39.33
80102;BME280;69407;44.966;19.622;2024-03-22T12:28:17;101082.34;;;20.02;39.82
80102;BME280;69407;44.966;19.622;2024-03-22T12:30:43;101078.50;;;20.62;39.58
80102;BME280;69407;44.966;19.622;2024-03-22T12:33:09;101067.97;;;20.70;40.04
80102;BME280;69407;44.966;19.622;2024-03-22T12:35:39;101070.13;;;21.42;38.89
80102;BME280;69407;44.966;19.622;2024-03-22T12:38:06;101071.16;;;21.18;37.42
80102;BME280;69407;44.966;19.622;2024-03-22T12:40:32;101075.56;;;20.42;41.18
80102;BME280;69407;44.966;19.622;2024-03-22T12:42:58;101074.72;;;20.64;39.45
80102;BME280;69407;44.966;19.622;2024-03-22T12:45:24;101065.91;;;21.17;39.92
80102;BME280;69407;44.966;19.622;2024-03-22T12:47:50;101067.84;;;21.58;38.24